Time;durP1;ratioP1;P1;durP2;ratioP2;P2;SDS_P1;SDS_P2;PMS_P1;PMS_P2;Temp;Humidity;BMP_temperature;BMP_pressure;BME280_temperature;BME280_humidity;BME280_pressure;Samples;Min_cycle;Max_cycle;Signal;HPM_P1;HPM_P2
2022/12/15 00:38:43;;;;;;;8.57;4.55;;;-2.80;99.90;;;;;;5012371;28;20061;-73
2022/12/15 00:41:14;;;;;;;9.27;4.13;;;-2.80;99.90;;;;;;5030222;28;20069;-72
2022/12/15 00:43:40;;;;;;;13.13;4.72;;;-2.90;99.90;;;;;;5029843;28;20033;-73
2022/12/15 00:48:50;;;;;;;9.65;4.55;;;-2.90;99.90;;;;;;5030109;28;20511;-73
2022/12/15 00:51:17;;;;;;;11.45;5.35;;;-2.80;99.90;;;;;;5029920;28;20076;-72
2022/12/15 01:21:08;;;;;;;14.67;6.70;;;-3.00;99.90;;;;;;5009811;28;20057;-72
2022/12/15 01:23:35;;;;;;;13.65;7.15;;;-3.00;99.90;;;;;;5009717;28;20257;-73
2022/12/15 01:26:01;;;;;;;10.60;6.32;;;-2.90;99.90;;;;;;5009922;28;20042;-73
2022/12/15 01:28:27;;;;;;;11.63;6.30;;;-2.90;99.90;;;;;;4992783;28;20466;-73
2022/12/15 01:30:53;;;;;;;13.35;6.38;;;-2.90;99.90;;;;;;5009517;28;20042;-72
2022/12/15 01:33:20;;;;;;;14.40;6.47;;;-2.90;99.90;;;;;;4991954;28;20057;-72
2022/12/15 01:35:55;;;;;;;12.70;6.88;;;-2.90;99.90;;;;;;5009509;28;20088;-73
2022/12/15 01:38:20;;;;;;;13.35;6.88;;;-2.90;99.90;;;;;;4992749;28;20050;-73
2022/12/15 01:40:52;;;;;;;14.57;7.00;;;-2.90;99.90;;;;;;5009525;28;20100;-73
2022/12/15 01:43:27;;;;;;;16.30;6.60;;;-2.90;99.90;;;;;;5009308;28;20050;-72
2022/12/15 01:46:14;;;;;;;14.18;7.07;;;-2.90;99.90;;;;;;4992858;28;20141;-73
2022/12/15 01:48:47;;;;;;;17.33;7.57;;;-2.90;99.90;;;;;;4991738;28;20050;-73
2022/12/15 01:51:40;;;;;;;14.45;6.65;;;-3.00;99.90;;;;;;5009503;28;20057;-72
2022/12/15 01:54:18;;;;;;;14.95;6.25;;;-3.00;99.90;;;;;;4991847;28;20489;-73
2022/12/15 01:56:48;;;;;;;13.18;6.70;;;-3.00;99.90;;;;;;4992318;28;20050;-72
2022/12/15 01:59:19;;;;;;;13.27;7.13;;;-3.00;99.90;;;;;;5009274;28;20038;-72
2022/12/15 02:01:45;;;;;;;13.90;6.70;;;-3.00;99.90;;;;;;5008873;28;20054;-75
2022/12/15 02:04:12;;;;;;;14.50;7.10;;;-3.00;99.90;;;;;;5009268;28;20087;-71
2022/12/15 02:06:38;;;;;;;13.00;6.35;;;-3.00;99.90;;;;;;5010225;28;20045;-72
2022/12/15 02:09:05;;;;;;;15.90;7.18;;;-3.10;99.90;;;;;;4991509;28;20046;-75
2022/12/15 02:11:47;;;;;;;13.13;6.90;;;-3.10;99.90;;;;;;4991972;28;20041;-71
2022/12/15 02:14:27;;;;;;;14.18;6.50;;;-3.20;99.90;;;;;;5013102;28;20053;-73
2022/12/15 02:17:07;;;;;;;14.65;6.53;;;-3.20;99.90;;;;;;5013345;28;20584;-72
2022/12/15 02:19:56;;;;;;;11.77;5.95;;;-3.20;99.90;;;;;;4993344;28;20093;-72
2022/12/15 02:23:01;;;;;;;17.70;6.10;;;-3.20;99.90;;;;;;4975626;28;20054;-73
2022/12/15 02:25:48;;;;;;;12.32;5.53;;;-3.30;99.90;;;;;;4975619;28;20107;-73
2022/12/15 02:28:35;;;;;;;16.33;6.10;;;-3.30;99.90;;;;;;4983852;28;20549;-76
2022/12/15 02:34:10;;;;;;;14.93;5.13;;;-3.40;99.90;;;;;;4994781;28;20054;-74
2022/12/15 02:36:38;;;;;;;12.00;5.75;;;-3.40;99.90;;;;;;5013556;28;20081;-72
2022/12/15 02:39:04;;;;;;;13.10;5.45;;;-3.30;99.90;;;;;;5012358;28;20137;-73
2022/12/15 02:41:40;;;;;;;12.05;5.57;;;-3.40;99.90;;;;;;5011498;28;20164;-72
2022/12/15 02:44:33;;;;;;;12.45;4.95;;;-3.40;99.90;;;;;;5012551;28;20462;-73
2022/12/15 02:47:11;;;;;;;14.32;5.22;;;-3.40;99.90;;;;;;4995429;28;20061;-73
2022/12/15 02:49:55;;;;;;;12.93;4.43;;;-3.40;99.90;;;;;;5012639;28;20054;-72
2022/12/15 02:52:54;;;;;;;12.27;4.33;;;-3.40;99.90;;;;;;5012707;28;20046;-73
2022/12/15 02:55:49;;;;;;;11.13;4.38;;;-3.40;99.90;;;;;;5012311;28;20045;-73
2022/12/15 02:58:49;;;;;;;7.85;3.85;;;-3.30;99.90;;;;;;5031157;28;20033;-72
2022/12/15 03:01:19;;;;;;;12.43;3.75;;;-3.30;99.90;;;;;;4980677;28;20067;-72
2022/12/15 03:03:47;;;;;;;10.55;3.88;;;-3.40;99.90;;;;;;4954359;28;20160;-72
2022/12/15 03:06:14;;;;;;;8.27;3.30;;;-3.40;99.90;;;;;;4954571;28;20059;-73
2022/12/15 03:08:39;;;;;;;10.57;2.90;;;-3.40;99.90;;;;;;4958118;28;20129;-73
2022/12/15 03:11:05;;;;;;;9.30;2.85;;;-2.10;99.90;;;;;;4953691;28;20086;-72
2022/12/15 03:13:31;;;;;;;8.85;2.20;;;-3.30;99.90;;;;;;4954286;28;20461;-72
2022/12/15 03:15:58;;;;;;;4.80;2.15;;;-3.30;99.90;;;;;;4955175;28;20146;-71
2022/12/15 03:18:23;;;;;;;7.18;1.95;;;-3.30;99.90;;;;;;4971682;28;20448;-73
2022/12/15 03:20:49;;;;;;;4.70;1.83;;;-3.30;99.90;;;;;;4954049;28;20059;-72
2022/12/15 03:23:15;;;;;;;8.73;2.35;;;-3.30;99.90;;;;;;4957379;28;20054;-72
2022/12/15 03:25:42;;;;;;;6.43;2.20;;;-3.30;99.90;;;;;;4970157;28;20061;-72
2022/12/15 03:28:08;;;;;;;8.43;2.55;;;-3.40;99.90;;;;;;4955259;28;20096;-74
2022/12/15 03:30:34;;;;;;;9.52;2.33;;;-3.30;99.90;;;;;;4974182;28;20632;-73
2022/12/15 03:32:59;;;;;;;10.25;2.28;;;-3.30;99.90;;;;;;4969867;28;20059;-72
2022/12/15 03:35:25;;;;;;;5.75;2.10;;;-3.30;99.90;;;;;;4958119;28;20126;-74
2022/12/15 03:37:50;;;;;;;5.80;2.22;;;-3.30;99.90;;;;;;5006269;28;20141;-73
2022/12/15 03:40:16;;;;;;;5.68;1.90;;;-3.30;99.90;;;;;;5012340;28;20129;-74
2022/12/15 03:42:47;;;;;;;5.47;1.42;;;-3.20;99.90;;;;;;5011173;28;20049;-73
2022/12/15 03:45:14;;;;;;;6.20;1.77;;;-3.10;99.90;;;;;;5011177;28;20057;-72
2022/12/15 03:47:40;;;;;;;8.15;1.58;;;-3.10;99.90;;;;;;5010806;28;20096;-73
2022/12/15 03:50:06;;;;;;;10.25;2.03;;;-3.10;99.90;;;;;;5011451;28;20048;-72
2022/12/15 03:52:32;;;;;;;4.68;1.60;;;-3.10;99.90;;;;;;5010903;28;20037;-73
2022/12/15 03:54:58;;;;;;;6.07;1.30;;;-3.10;99.90;;;;;;5011299;28;20892;-72
2022/12/15 03:57:23;;;;;;;7.40;1.48;;;-3.10;99.90;;;;;;5011076;28;20104;-72
2022/12/15 03:59:49;;;;;;;9.60;1.65;;;-3.00;99.90;;;;;;5016992;28;20106;-73
2022/12/15 04:02:15;;;;;;;3.30;1.35;;;-3.00;99.90;;;;;;5014878;28;20108;-73
2022/12/15 04:04:41;;;;;;;8.02;1.98;;;-3.00;99.90;;;;;;4993460;28;20696;-75
2022/12/15 04:07:06;;;;;;;7.05;2.03;;;-3.00;99.90;;;;;;5015133;28;20037;-75
2022/12/15 04:09:32;;;;;;;6.50;2.08;;;-3.00;99.90;;;;;;4995159;28;20430;-73
2022/12/15 04:11:57;;;;;;;6.50;2.10;;;-3.00;99.90;;;;;;4992789;28;20042;-73
2022/12/15 04:14:23;;;;;;;6.13;2.38;;;-3.00;99.90;;;;;;4992231;28;20461;-73
2022/12/15 04:16:48;;;;;;;10.35;2.72;;;-3.00;99.90;;;;;;5010636;28;20103;-74
2022/12/15 04:22:01;;;;;;;7.60;2.60;;;-3.00;99.90;;;;;;5011924;28;20053;-73
2022/12/15 05:32:54;;;;;;;9.50;4.50;;;-2.60;99.90;;;;;;5009661;28;20069;-75
2022/12/15 05:35:20;;;;;;;11.90;5.00;;;-2.60;99.90;;;;;;5011673;28;20046;-74
2022/12/15 05:37:45;;;;;;;11.38;5.10;;;-2.60;99.90;;;;;;5019744;28;20073;-73
2022/12/15 05:40:11;;;;;;;9.15;4.95;;;-2.60;99.90;;;;;;5009457;28;20046;-74
2022/12/15 05:42:37;;;;;;;12.18;5.07;;;-2.60;99.90;;;;;;4991533;28;20050;-74
2022/12/15 05:45:04;;;;;;;10.35;5.53;;;-2.60;99.90;;;;;;5029231;28;20120;-73
2022/12/15 05:47:29;;;;;;;13.70;5.25;;;-2.60;99.90;;;;;;5032357;28;20084;-73
2022/12/15 05:49:55;;;;;;;10.70;5.05;;;-2.60;99.90;;;;;;5017887;28;20146;-72
2022/12/15 05:52:21;;;;;;;12.88;5.03;;;-2.60;99.90;;;;;;5035704;28;20060;-72
2022/12/15 05:54:46;;;;;;;15.02;5.80;;;-2.60;99.90;;;;;;5035340;28;20040;-73
2022/12/15 05:57:12;;;;;;;16.67;5.47;;;-2.60;99.90;;;;;;5016236;28;20049;-73
2022/12/15 05:59:37;;;;;;;12.65;6.15;;;-2.60;99.90;;;;;;5035136;28;20398;-72
2022/12/15 06:02:03;;;;;;;13.75;6.45;;;-2.50;99.90;;;;;;5035941;28;20063;-73
2022/12/15 06:04:29;;;;;;;12.13;5.75;;;-2.50;99.90;;;;;;5016115;28;20407;-74
2022/12/15 06:06:54;;;;;;;11.23;6.25;;;-2.40;99.90;;;;;;5034327;28;20038;-73
2022/12/15 06:09:20;;;;;;;15.93;6.85;;;-2.30;99.90;;;;;;5035172;28;20059;-72
2022/12/15 06:11:46;;;;;;;14.38;6.88;;;-2.30;99.90;;;;;;5017735;28;20049;-72
2022/12/15 06:14:11;;;;;;;18.25;7.00;;;-2.20;99.90;;;;;;5033608;28;20383;-76
2022/12/15 06:16:37;;;;;;;14.73;6.65;;;-2.10;99.90;;;;;;5035668;28;20063;-75
2022/12/15 06:19:03;;;;;;;19.05;7.25;;;-2.00;99.90;;;;;;5015745;28;20067;-73
2022/12/15 06:21:36;;;;;;;14.32;7.28;;;-2.00;99.90;;;;;;5035256;28;20053;-73
2022/12/15 06:24:04;;;;;;;15.52;6.63;;;-2.00;99.90;;;;;;5035055;28;20496;-74
2022/12/15 06:26:32;;;;;;;15.73;7.05;;;-2.20;99.90;;;;;;5035546;28;20041;-74
2022/12/15 06:29:03;;;;;;;15.43;6.50;;;-1.90;99.90;;;;;;5015887;28;20063;-72
2022/12/15 06:31:30;;;;;;;21.48;7.35;;;-1.90;99.90;;;;;;5035415;28;20199;-71
2022/12/15 06:33:56;;;;;;;14.15;6.43;;;-1.90;99.90;;;;;;5017402;28;20041;-72
2022/12/15 06:36:23;;;;;;;13.77;6.80;;;-1.90;99.90;;;;;;5034658;28;20136;-76
2022/12/15 06:38:49;;;;;;;21.70;7.32;;;-1.90;99.90;;;;;;5012247;28;20061;-72
2022/12/15 06:41:16;;;;;;;16.60;7.70;;;-1.90;99.90;;;;;;5015435;28;20049;-72
2022/12/15 06:43:42;;;;;;;12.30;6.05;;;-1.90;99.90;;;;;;5014983;28;20046;-72
2022/12/15 06:46:08;;;;;;;18.33;7.55;;;-1.80;99.90;;;;;;5015508;28;20053;-75
2022/12/15 06:48:34;;;;;;;12.95;6.85;;;-1.80;99.90;;;;;;5028729;28;20041;-71
2022/12/15 06:51:07;;;;;;;15.65;6.50;;;-1.90;99.90;;;;;;5015211;28;20045;-71
2022/12/15 06:53:36;;;;;;;19.25;7.05;;;-1.90;99.90;;;;;;5035653;28;20038;-72
2022/12/15 06:56:05;;;;;;;15.63;7.53;;;-1.90;99.90;;;;;;5017432;28;20047;-72
2022/12/15 06:58:31;;;;;;;17.02;7.28;;;-1.80;99.90;;;;;;5033412;28;20136;-72
2022/12/15 07:00:56;;;;;;;11.65;6.55;;;-1.80;99.90;;;;;;5012392;28;20124;-72
2022/12/15 07:03:23;;;;;;;10.82;6.10;;;-1.80;99.90;;;;;;5013067;28;20433;-72
2022/12/15 07:06:02;;;;;;;19.20;7.15;;;-1.80;99.90;;;;;;5013949;28;20053;-73
2022/12/15 07:08:28;;;;;;;16.35;6.72;;;-1.80;99.90;;;;;;5028357;28;20061;-78
2022/12/15 07:10:54;;;;;;;14.70;6.47;;;-1.80;99.90;;;;;;5013385;28;20042;-75
2022/12/15 07:13:19;;;;;;;12.80;6.40;;;-1.80;99.90;;;;;;5013195;28;20049;-72
2022/12/15 07:15:46;;;;;;;10.85;5.65;;;-1.80;99.90;;;;;;4994813;28;20041;-72
2022/12/15 07:18:11;;;;;;;21.45;6.93;;;-1.80;99.90;;;;;;5012050;28;20409;-71
2022/12/15 07:20:37;;;;;;;13.45;6.75;;;-1.80;99.90;;;;;;5013118;28;20053;-73
2022/12/15 07:23:06;;;;;;;15.95;6.20;;;-1.80;99.90;;;;;;5012303;28;20042;-73
2022/12/15 07:25:34;;;;;;;18.38;6.85;;;-1.80;99.90;;;;;;5012194;28;20477;-72
2022/12/15 07:28:00;;;;;;;14.15;5.85;;;-1.80;99.90;;;;;;5012230;28;20049;-72
2022/12/15 07:30:26;;;;;;;12.85;6.53;;;-1.90;99.90;;;;;;4994943;28;20052;-72
2022/12/15 07:32:51;;;;;;;13.27;6.15;;;-1.80;99.90;;;;;;5019486;28;20034;-72
2022/12/15 07:35:17;;;;;;;15.15;6.15;;;-1.80;99.90;;;;;;5013238;28;20386;-72
2022/12/15 07:37:43;;;;;;;15.30;5.75;;;-1.80;99.90;;;;;;5003079;28;20072;-72
2022/12/15 07:40:09;;;;;;;12.57;5.97;;;-1.80;99.90;;;;;;5031232;28;20056;-72
2022/12/15 07:42:47;;;;;;;16.90;7.05;;;-1.80;99.90;;;;;;5032296;28;20060;-72
2022/12/15 07:45:13;;;;;;;16.40;6.40;;;-1.80;99.90;;;;;;5031198;28;20053;-72
2022/12/15 07:47:39;;;;;;;14.52;6.15;;;-1.80;99.90;;;;;;4994778;28;20054;-76
2022/12/15 07:50:06;;;;;;;11.95;5.30;;;-1.80;99.90;;;;;;5013599;28;20052;-72
2022/12/15 07:52:31;;;;;;;14.38;6.53;;;-1.70;99.90;;;;;;5012451;28;20050;-73
2022/12/15 07:54:57;;;;;;;16.00;6.60;;;-1.80;99.90;;;;;;5011272;28;20041;-73
2022/12/15 07:57:22;;;;;;;17.80;6.85;;;-1.80;99.90;;;;;;5012399;28;20093;-73
2022/12/15 07:59:50;;;;;;;14.48;6.15;;;-1.70;99.90;;;;;;5011844;28;20085;-73
2022/12/15 08:02:16;;;;;;;14.70;6.95;;;-1.70;99.90;;;;;;4989584;28;20672;-73
2022/12/15 08:04:42;;;;;;;15.15;6.28;;;-1.70;99.90;;;;;;4992390;28;20042;-73
2022/12/15 08:07:09;;;;;;;13.00;6.47;;;-1.70;99.90;;;;;;4992343;28;20386;-72
2022/12/15 08:09:35;;;;;;;14.68;7.43;;;-1.60;99.90;;;;;;4983977;28;20457;-73
2022/12/15 08:12:01;;;;;;;12.18;6.88;;;-1.50;99.90;;;;;;4992232;28;20050;-73
2022/12/15 08:14:28;;;;;;;14.88;5.97;;;-1.50;99.90;;;;;;4984191;28;20124;-74
2022/12/15 08:16:53;;;;;;;17.48;6.57;;;-1.50;99.90;;;;;;5011672;28;20104;-73
2022/12/15 08:19:19;;;;;;;15.00;6.10;;;-1.40;99.90;;;;;;5009693;28;20049;-76
2022/12/15 08:21:45;;;;;;;11.55;5.88;;;-1.30;99.90;;;;;;4974288;28;20043;-73
2022/12/15 08:24:13;;;;;;;10.50;6.47;;;-1.40;99.90;;;;;;4991587;28;20425;-72
2022/12/15 08:26:40;;;;;;;15.80;6.28;;;-1.30;99.90;;;;;;4970985;28;20533;-72
2022/12/15 08:29:07;;;;;;;18.35;7.13;;;-1.30;99.90;;;;;;4970946;28;20047;-74
2022/12/15 08:31:33;;;;;;;11.70;6.38;;;-1.30;99.90;;;;;;4971044;28;20047;-73
2022/12/15 08:34:00;;;;;;;15.75;6.63;;;-1.20;99.90;;;;;;4970823;28;20062;-72
2022/12/15 08:36:27;;;;;;;19.60;6.57;;;-1.20;99.90;;;;;;4968755;28;20085;-78
2022/12/15 08:38:56;;;;;;;18.67;6.95;;;-1.20;99.90;;;;;;4991475;28;20049;-73
2022/12/15 08:41:27;;;;;;;11.23;6.03;;;-1.20;99.90;;;;;;4974080;28;20062;-73
2022/12/15 08:43:53;;;;;;;18.75;6.45;;;-1.10;99.90;;;;;;4991334;28;20073;-74
2022/12/15 08:46:22;;;;;;;12.63;5.95;;;-1.10;99.90;;;;;;4990569;28;20525;-74
2022/12/15 08:48:48;;;;;;;14.55;6.22;;;-1.10;99.90;;;;;;4990747;28;20100;-72
2022/12/15 08:51:14;;;;;;;17.35;6.53;;;-1.10;99.90;;;;;;4991382;28;20034;-73
2022/12/15 08:53:39;;;;;;;12.73;6.40;;;-1.10;99.90;;;;;;4990711;28;20427;-77
2022/12/15 08:56:11;;;;;;;13.05;6.10;;;-1.00;99.90;;;;;;4990810;28;20046;-74
2022/12/15 08:58:37;;;;;;;15.88;6.63;;;-1.00;99.90;;;;;;4991149;28;20402;-73
2022/12/15 09:01:10;;;;;;;17.35;6.47;;;-1.00;99.90;;;;;;4978889;28;20066;-73
2022/12/15 09:03:36;;;;;;;17.30;7.20;;;-0.90;99.90;;;;;;5010814;28;20552;-73
2022/12/15 09:06:07;;;;;;;15.23;6.90;;;-0.90;99.90;;;;;;4992577;28;20497;-73
2022/12/15 09:08:33;;;;;;;13.80;7.18;;;-0.80;99.90;;;;;;5010436;28;20060;-73
2022/12/15 09:11:00;;;;;;;19.25;6.80;;;-0.80;99.90;;;;;;5009535;28;20120;-72
2022/12/15 09:13:26;;;;;;;14.02;7.53;;;-0.80;99.90;;;;;;5011595;28;20094;-71
2022/12/15 09:16:00;;;;;;;16.52;7.30;;;-0.80;99.90;;;;;;5009599;28;20200;-73
2022/12/15 09:18:26;;;;;;;15.35;6.60;;;-0.70;99.90;;;;;;4990485;28;20657;-74
2022/12/15 09:20:52;;;;;;;13.80;7.22;;;-0.70;99.90;;;;;;5010021;28;20067;-73
2022/12/15 09:23:19;;;;;;;14.30;6.50;;;-0.70;99.90;;;;;;4992271;28;20058;-74
2022/12/15 09:25:45;;;;;;;18.45;7.30;;;-0.70;99.90;;;;;;4976415;28;20144;-77
2022/12/15 09:28:12;;;;;;;15.30;7.07;;;-0.70;99.90;;;;;;5013674;28;20077;-74
2022/12/15 09:30:37;;;;;;;15.30;7.07;;;-0.80;99.90;;;;;;4973242;28;20050;-74
2022/12/15 09:33:03;;;;;;;13.45;7.38;;;-0.80;99.90;;;;;;4990491;28;20489;-73
2022/12/15 09:35:29;;;;;;;16.10;7.43;;;-0.80;99.90;;;;;;4973274;28;20125;-74
2022/12/15 09:37:56;;;;;;;16.60;7.22;;;-0.80;99.90;;;;;;4956739;28;20290;-73
2022/12/15 09:40:21;;;;;;;16.55;7.63;;;-0.80;99.90;;;;;;4997686;28;20038;-72
2022/12/15 09:42:53;;;;;;;15.27;7.80;;;-0.70;99.90;;;;;;5010406;28;20049;-74
2022/12/15 09:45:22;;;;;;;15.82;7.32;;;-0.60;99.90;;;;;;4992683;28;20057;-74
2022/12/15 09:48:05;;;;;;;15.65;7.35;;;-0.60;99.90;;;;;;5010292;28;20046;-73
2022/12/15 09:50:37;;;;;;;16.08;7.55;;;-0.40;99.90;;;;;;5009944;28;20054;-72
2022/12/15 09:53:04;;;;;;;13.77;7.45;;;-0.40;99.90;;;;;;4992434;28;20061;-70
2022/12/15 09:55:31;;;;;;;16.50;7.75;;;-0.30;99.90;;;;;;5010163;28;20050;-71
2022/12/15 09:58:31;;;;;;;16.80;7.55;;;-0.20;99.90;;;;;;4992546;28;20088;-71
2022/12/15 10:01:43;;;;;;;17.80;7.63;;;-0.10;99.90;;;;;;4992253;28;20112;-71
2022/12/15 10:04:36;;;;;;;14.70;6.82;;;0.10;99.90;;;;;;5003815;28;20050;-70
2022/12/15 10:07:22;;;;;;;11.80;7.18;;;0.20;99.90;;;;;;4972993;28;20397;-71
2022/12/15 10:09:48;;;;;;;15.40;7.85;;;0.40;99.90;;;;;;4975066;28;20058;-70
2022/12/15 10:12:28;;;;;;;17.27;7.40;;;0.50;99.90;;;;;;5009826;28;20116;-70
2022/12/15 10:15:15;;;;;;;15.50;7.85;;;0.70;99.90;;;;;;5009993;28;20042;-71
2022/12/15 10:17:58;;;;;;;15.82;8.07;;;0.80;99.90;;;;;;5009896;28;20053;-72
2022/12/15 10:20:30;;;;;;;14.77;7.25;;;1.00;99.90;;;;;;5008487;28;20038;-72
2022/12/15 10:23:08;;;;;;;16.52;7.45;;;1.10;99.90;;;;;;5009593;28;20100;-71
2022/12/15 10:25:34;;;;;;;12.55;6.68;;;1.20;99.90;;;;;;5009696;28;20489;-71
2022/12/15 10:28:15;;;;;;;14.13;6.80;;;1.40;99.90;;;;;;5009543;28;20133;-71
2022/12/15 10:30:51;;;;;;;12.52;7.00;;;1.50;99.90;;;;;;5009816;28;20046;-69
2022/12/15 10:33:20;;;;;;;15.85;6.53;;;1.60;99.90;;;;;;4993808;28;20061;-72
2022/12/15 10:35:47;;;;;;;16.02;7.07;;;1.70;99.90;;;;;;5013613;28;20692;-73
2022/12/15 10:38:36;;;;;;;12.75;6.00;;;1.80;99.90;;;;;;4995347;28;20053;-73
2022/12/15 10:41:04;;;;;;;11.77;6.10;;;1.90;99.90;;;;;;5012909;28;20124;-73
2022/12/15 10:43:41;;;;;;;13.43;6.60;;;2.00;99.90;;;;;;5011819;28;20058;-72
2022/12/15 10:46:24;;;;;;;14.50;7.15;;;2.10;99.90;;;;;;5013252;28;20100;-72
2022/12/15 10:49:23;;;;;;;18.38;6.22;;;2.10;99.90;;;;;;4995390;28;20057;-74
2022/12/15 10:51:58;;;;;;;15.60;6.97;;;2.20;99.90;;;;;;5012982;28;20126;-74
2022/12/15 10:54:35;;;;;;;15.73;6.32;;;2.30;99.90;;;;;;5012800;28;20042;-74
2022/12/15 10:57:22;;;;;;;24.98;6.70;;;2.40;99.90;;;;;;5013085;28;20157;-72
2022/12/15 10:59:48;;;;;;;13.75;5.60;;;2.40;99.90;;;;;;5013011;28;20080;-71
2022/12/15 11:02:20;;;;;;;12.88;6.05;;;2.40;99.90;;;;;;5012809;28;20050;-73
2022/12/15 11:05:00;;;;;;;17.17;6.20;;;2.60;99.90;;;;;;4995009;28;20090;-73
2022/12/15 11:07:34;;;;;;;15.77;6.53;;;2.70;99.90;;;;;;5012779;28;20496;-73
2022/12/15 11:10:07;;;;;;;12.07;5.50;;;2.70;99.90;;;;;;4994983;28;20053;-73
2022/12/15 11:12:51;;;;;;;18.13;6.47;;;2.80;99.90;;;;;;5012786;28;20331;-72
2022/12/15 11:15:22;;;;;;;13.90;5.72;;;2.70;99.90;;;;;;5012636;28;20045;-75
2022/12/15 11:18:26;;;;;;;11.90;5.43;;;2.80;99.90;;;;;;5012449;28;20053;-72
2022/12/15 11:21:09;;;;;;;9.43;5.38;;;2.90;99.90;;;;;;5012636;28;20057;-73
2022/12/15 11:23:49;;;;;;;12.00;5.65;;;3.00;99.90;;;;;;5012562;28;20436;-72
2022/12/15 11:26:41;;;;;;;11.80;5.45;;;3.10;99.90;;;;;;5012189;28;20050;-76
2022/12/15 11:29:44;;;;;;;12.27;5.38;;;3.20;99.90;;;;;;5012402;28;20425;-75
2022/12/15 11:32:11;;;;;;;13.95;5.63;;;3.20;99.90;;;;;;4993415;28;20108;-73
2022/12/15 11:34:47;;;;;;;18.60;6.68;;;3.30;99.90;;;;;;5012418;28;20128;-71
2022/12/15 11:37:39;;;;;;;13.27;5.10;;;3.30;99.90;;;;;;4994973;28;20053;-74
2022/12/15 11:40:14;;;;;;;11.15;4.85;;;3.50;99.90;;;;;;5011766;28;20680;-72
2022/12/15 11:43:10;;;;;;;13.05;5.00;;;3.50;99.90;;;;;;5012087;28;20052;-73
2022/12/15 11:45:53;;;;;;;12.40;5.32;;;3.70;99.90;;;;;;5015295;28;20201;-71
2022/12/15 11:48:32;;;;;;;12.07;5.00;;;3.80;99.90;;;;;;5013010;28;20050;-72
2022/12/15 11:51:09;;;;;;;14.73;5.60;;;3.80;99.90;;;;;;5011957;28;20133;-73
2022/12/15 11:53:34;;;;;;;13.90;4.63;;;3.90;99.90;;;;;;5011944;28;20053;-72
2022/12/15 11:56:26;;;;;;;13.23;5.18;;;4.00;99.90;;;;;;5011960;28;20116;-73
2022/12/15 11:59:03;;;;;;;10.10;4.63;;;4.20;99.90;;;;;;5007944;28;20482;-72
2022/12/15 12:02:17;;;;;;;13.90;4.57;;;4.20;99.90;;;;;;4991891;28;20057;-75
2022/12/15 12:05:21;;;;;;;10.88;4.82;;;4.30;99.90;;;;;;4938233;28;20545;-76
2022/12/15 12:08:24;;;;;;;12.77;4.90;;;4.30;99.90;;;;;;4966136;28;20050;-72
2022/12/15 12:11:38;;;;;;;12.07;5.07;;;4.40;99.90;;;;;;4960481;28;20526;-73
2022/12/15 12:14:16;;;;;;;10.68;4.50;;;4.40;99.90;;;;;;4896460;29;20095;-72
2022/12/15 12:17:25;;;;;;;17.58;4.90;;;4.50;99.90;;;;;;4913075;29;20052;-73
2022/12/15 12:19:56;;;;;;;15.38;4.82;;;4.50;99.90;;;;;;4912376;29;20052;-72
2022/12/15 12:22:31;;;;;;;9.25;4.50;;;4.50;99.90;;;;;;4912761;29;20070;-72
2022/12/15 12:25:03;;;;;;;14.50;4.28;;;4.60;99.90;;;;;;4912835;29;20059;-77
2022/12/15 12:27:39;;;;;;;13.10;4.05;;;4.50;99.90;;;;;;4896179;29;20055;-73
2022/12/15 12:30:16;;;;;;;12.75;4.57;;;4.50;99.90;;;;;;4911934;29;20420;-72
2022/12/15 12:33:08;;;;;;;11.27;4.32;;;4.60;99.90;;;;;;4912448;29;20592;-72
2022/12/15 12:36:01;;;;;;;11.43;4.35;;;4.70;99.90;;;;;;4912289;29;20055;-73
2022/12/15 12:38:36;;;;;;;14.88;4.13;;;4.70;99.90;;;;;;4912293;29;20071;-72
2022/12/15 12:41:01;;;;;;;15.43;4.38;;;4.70;99.90;;;;;;4911341;29;20060;-73
2022/12/15 12:43:50;;;;;;;9.65;4.28;;;4.70;99.90;;;;;;4912666;29;20119;-73
2022/12/15 12:46:25;;;;;;;10.88;4.03;;;4.80;99.90;;;;;;4931170;29;20058;-76
2022/12/15 12:49:01;;;;;;;10.95;4.78;;;4.80;99.90;;;;;;4986453;28;20100;-73
2022/12/15 12:51:34;;;;;;;9.18;4.43;;;4.90;99.90;;;;;;5011992;28;20052;-77
2022/12/15 12:54:01;;;;;;;11.18;4.72;;;4.90;99.90;;;;;;5010837;28;20049;-72
2022/12/15 12:56:35;;;;;;;13.25;4.80;;;4.90;99.90;;;;;;4993073;28;20100;-74
2022/12/15 12:59:07;;;;;;;11.55;4.30;;;5.00;99.90;;;;;;5004539;28;20049;-72
2022/12/15 13:01:36;;;;;;;9.75;4.07;;;5.00;99.90;;;;;;5029702;28;20065;-74
2022/12/15 13:04:06;;;;;;;12.23;4.28;;;5.70;99.90;;;;;;5012630;28;20061;-73
2022/12/15 13:06:35;;;;;;;10.57;3.85;;;5.00;99.90;;;;;;5012922;28;20500;-75
2022/12/15 13:09:16;;;;;;;13.57;4.78;;;5.00;99.90;;;;;;5012547;28;20049;-72
2022/12/15 13:11:47;;;;;;;8.77;4.22;;;5.00;99.90;;;;;;5001800;28;20051;-72
2022/12/15 13:14:16;;;;;;;15.57;4.20;;;4.90;99.90;;;;;;4993531;28;20096;-72
2022/12/15 13:16:44;;;;;;;12.07;4.18;;;4.90;99.90;;;;;;5010708;28;20045;-75
2022/12/15 13:19:11;;;;;;;13.32;4.38;;;4.90;99.90;;;;;;5010522;28;20049;-74
2022/12/15 13:21:43;;;;;;;10.10;3.67;;;4.90;99.90;;;;;;5010334;28;20061;-74
2022/12/15 13:24:33;;;;;;;7.63;3.80;;;4.80;99.90;;;;;;5020441;28;20050;-72
2022/12/15 13:27:08;;;;;;;13.13;5.43;;;4.70;99.90;;;;;;4982531;28;20058;-76
2022/12/15 13:29:53;;;;;;;13.80;4.43;;;4.50;99.90;;;;;;4958665;28;20059;-72
2022/12/15 13:32:37;;;;;;;9.45;3.63;;;4.30;99.90;;;;;;4949794;29;20654;-72
2022/12/15 13:35:30;;;;;;;10.50;4.05;;;4.20;99.90;;;;;;4968871;28;20425;-72
2022/12/15 13:38:01;;;;;;;8.57;3.70;;;4.10;99.90;;;;;;4951480;28;20059;-71
2022/12/15 13:40:36;;;;;;;8.90;4.05;;;3.90;99.90;;;;;;4950654;28;20066;-74
2022/12/15 13:43:04;;;;;;;;;;;3.90;99.90;;;;;;4968860;28;20054;-73
2022/12/15 13:45:36;;;;;;;17.33;4.30;;;3.70;99.90;;;;;;4968757;28;19926;-75
2022/12/15 13:48:20;;;;;;;17.63;4.30;;;3.60;99.90;;;;;;4952995;28;20243;-73
2022/12/15 13:51:02;;;;;;;13.02;4.03;;;3.60;99.90;;;;;;4949589;29;20087;-76
2022/12/15 13:53:42;;;;;;;12.13;4.18;;;3.60;99.90;;;;;;4934596;28;20883;-71
2022/12/15 13:56:10;;;;;;;10.25;3.95;;;3.60;99.90;;;;;;4960171;28;20103;-72
2022/12/15 13:58:44;;;;;;;8.23;4.10;;;3.60;99.90;;;;;;4949574;29;20059;-73
2022/12/15 14:01:30;;;;;;;12.37;4.23;;;3.70;99.90;;;;;;4949616;29;20063;-74
2022/12/15 14:04:11;;;;;;;;;;;3.70;99.90;;;;;;4949984;28;20307;-74
2022/12/15 14:06:42;;;;;;;11.75;4.18;;;4.00;99.90;;;;;;4933546;28;19918;-78
2022/12/15 14:09:13;;;;;;;13.73;4.10;;;3.80;99.90;;;;;;4953815;28;20062;-74
2022/12/15 14:11:40;;;;;;;12.43;4.13;;;3.70;99.90;;;;;;4953490;29;20809;-72
2022/12/15 14:14:16;;;;;;;14.25;4.50;;;3.60;99.90;;;;;;4948586;28;20057;-72
2022/12/15 14:16:43;;;;;;;13.63;4.88;;;3.50;99.90;;;;;;5014376;28;20084;-72
2022/12/15 14:19:15;;;;;;;13.80;5.30;;;3.50;99.90;;;;;;5015057;28;20572;-72
2022/12/15 14:21:52;;;;;;;14.38;5.57;;;3.40;99.90;;;;;;5014142;28;20164;-73
2022/12/15 14:24:30;;;;;;;19.02;5.93;;;3.30;99.90;;;;;;4996312;28;20046;-72
2022/12/15 14:26:56;;;;;;;13.70;5.43;;;3.30;99.90;;;;;;5014107;28;20112;-73
2022/12/15 14:29:22;;;;;;;18.25;6.50;;;3.20;99.90;;;;;;5014888;28;20410;-72
2022/12/15 14:31:54;;;;;;;18.63;6.03;;;3.50;99.90;;;;;;5014617;28;20060;-70
2022/12/15 14:34:31;;;;;;;16.48;5.70;;;3.10;99.90;;;;;;5009419;28;20077;-78
2022/12/15 14:37:01;;;;;;;15.50;5.80;;;3.10;99.90;;;;;;5033724;28;20046;-72
2022/12/15 14:39:44;;;;;;;11.23;5.20;;;3.00;99.90;;;;;;5015840;28;20192;-74
2022/12/15 14:42:18;;;;;;;12.23;5.15;;;3.00;99.90;;;;;;4996704;28;20111;-72
2022/12/15 14:44:45;;;;;;;13.43;5.68;;;3.00;99.90;;;;;;5025686;28;20042;-73
2022/12/15 14:47:29;;;;;;;13.63;5.43;;;2.90;99.90;;;;;;5013634;28;20087;-74
2022/12/15 14:49:56;;;;;;;14.85;5.22;;;2.90;99.90;;;;;;5013669;28;20067;-72
2022/12/15 14:52:43;;;;;;;10.50;5.32;;;2.80;99.90;;;;;;4995715;28;20099;-73
2022/12/15 14:55:31;;;;;;;15.43;6.63;;;2.80;99.90;;;;;;5014224;28;20065;-73
2022/12/15 14:57:58;;;;;;;12.38;5.15;;;2.80;99.90;;;;;;5013386;28;20701;-71
2022/12/15 15:00:26;;;;;;;10.55;4.90;;;2.70;99.90;;;;;;5013252;28;20050;-73
2022/12/15 15:03:13;;;;;;;10.88;4.90;;;2.70;99.90;;;;;;5013123;28;20068;-71
2022/12/15 15:05:43;;;;;;;13.43;5.90;;;2.70;99.90;;;;;;4996068;28;20497;-72
2022/12/15 15:08:14;;;;;;;11.82;5.70;;;2.60;99.90;;;;;;4995667;28;20416;-71
2022/12/15 15:10:40;;;;;;;16.65;6.10;;;2.60;99.90;;;;;;5012918;28;20050;-71
2022/12/15 15:13:22;;;;;;;11.18;5.57;;;2.50;99.90;;;;;;5013051;28;20041;-71
2022/12/15 15:15:58;;;;;;;14.57;5.93;;;2.40;99.90;;;;;;5002893;28;20401;-70
2022/12/15 15:18:27;;;;;;;21.00;6.45;;;2.40;99.90;;;;;;5012844;28;20049;-72
2022/12/15 15:21:04;;;;;;;14.90;5.57;;;2.40;99.90;;;;;;5012225;28;20053;-73
2022/12/15 15:23:30;;;;;;;14.93;5.60;;;2.30;99.90;;;;;;5014533;28;20049;-72
2022/12/15 15:26:05;;;;;;;12.32;4.90;;;2.30;99.90;;;;;;5018981;28;20046;-72
2022/12/15 15:28:38;;;;;;;21.95;5.60;;;2.20;99.90;;;;;;5009383;28;20125;-72
2022/12/15 15:31:36;;;;;;;15.50;5.72;;;2.20;99.90;;;;;;5011941;28;20068;-72
2022/12/15 15:34:02;;;;;;;14.90;5.93;;;2.10;99.90;;;;;;4995311;28;20046;-73